Time;durP1;ratioP1;P1;durP2;ratioP2;P2;SDS_P1;SDS_P2;PMS_P1;PMS_P2;Temp;Humidity;BMP_temperature;BMP_pressure;BME280_temperature;BME280_humidity;BME280_pressure;Samples;Min_cycle;Max_cycle;Signal;HPM_P1;HPM_P2
2024/03/13 00:00:26;;;;;;;92.35;12.70;;;;;;;8.66;100.00;101350.28;5092966;28;20064;-73
2024/03/13 00:02:53;;;;;;;75.00;12.40;;;;;;;8.72;100.00;101362.22;5092824;28;20085;-72
2024/03/13 00:05:19;;;;;;;63.33;10.80;;;;;;;8.72;100.00;101356.91;5092766;28;20332;-73
2024/03/13 00:07:45;;;;;;;78.65;11.80;;;;;;;8.74;100.00;101355.00;5093003;28;20027;-73
2024/03/13 00:10:11;;;;;;;78.15;11.55;;;;;;;8.80;100.00;101357.22;5092554;28;20120;-73
2024/03/13 00:12:36;;;;;;;61.22;10.88;;;;;;;8.80;100.00;101358.03;5093046;28;20024;-73
2024/03/13 00:15:05;;;;;;;68.13;10.60;;;;;;;8.82;100.00;101357.94;5092765;28;20028;-72
2024/03/13 00:17:32;;;;;;;64.63;10.38;;;;;;;8.83;100.00;101364.94;5092081;28;20032;-73
2024/03/13 00:19:57;;;;;;;63.40;10.77;;;;;;;8.85;100.00;101368.31;5092677;28;20097;-73
2024/03/13 00:22:24;;;;;;;59.35;10.77;;;;;;;8.86;100.00;101367.34;5092628;28;20031;-73
2024/03/13 00:24:54;;;;;;;63.38;10.13;;;;;;;8.84;100.00;101371.94;5092329;28;20035;-73
2024/03/13 00:27:20;;;;;;;66.97;9.85;;;;;;;8.81;100.00;101364.22;5092266;28;20035;-73
2024/03/13 00:29:47;;;;;;;57.35;10.57;;;;;;;8.83;100.00;101367.59;5092240;28;20368;-72
2024/03/13 00:32:14;;;;;;;68.15;10.98;;;;;;;8.83;100.00;101364.94;5092150;28;20031;-73
2024/03/13 00:34:43;;;;;;;55.45;9.90;;;;;;;8.82;100.00;101365.88;5092029;28;20048;-73
2024/03/13 00:37:09;;;;;;;60.75;9.65;;;;;;;8.82;100.00;101365.88;5092081;28;20118;-72
2024/03/13 00:39:34;;;;;;;69.68;11.20;;;;;;;8.82;100.00;101364.09;5092236;28;20059;-72
2024/03/13 00:42:02;;;;;;;54.75;9.77;;;;;;;8.82;100.00;101365.88;5092049;28;20085;-72
2024/03/13 00:44:28;;;;;;;48.70;8.98;;;;;;;8.79;100.00;101364.34;5092121;28;20056;-72
2024/03/13 00:46:54;;;;;;;57.95;10.15;;;;;;;8.80;100.00;101373.97;5091836;28;20522;-72
2024/03/13 00:49:19;;;;;;;66.00;10.02;;;;;;;8.79;100.00;101374.94;5092122;28;20039;-72
2024/03/13 00:51:45;;;;;;;66.10;11.05;;;;;;;8.78;100.00;101378.56;5091782;28;20049;-72
2024/03/13 00:54:11;;;;;;;67.43;10.27;;;;;;;8.76;100.00;101372.53;5091969;28;20081;-72
2024/03/13 00:56:36;;;;;;;65.47;10.40;;;;;;;8.74;100.00;101373.59;5091826;28;20430;-74
2024/03/13 00:59:05;;;;;;;69.32;11.70;;;;;;;8.72;100.00;101371.06;5091720;28;20028;-72
2024/03/13 01:01:30;;;;;;;51.47;10.43;;;;;;;8.72;100.00;101378.13;5091510;28;20030;-73
2024/03/13 01:03:59;;;;;;;67.18;10.73;;;;;;;8.71;100.00;101376.47;5091809;28;20064;-72
2024/03/13 01:06:31;;;;;;;51.83;9.95;;;;;;;8.70;100.00;101380.06;5091717;28;20023;-74
2024/03/13 01:08:57;;;;;;;67.47;11.73;;;;;;;8.70;100.00;101382.72;5073350;28;20055;-73
2024/03/13 01:11:23;;;;;;;60.47;10.60;;;;;;;8.71;100.00;101382.63;5091347;28;20093;-71
2024/03/13 01:13:50;;;;;;;52.10;9.40;;;;;;;8.72;100.00;101380.78;5091751;28;20153;-72
2024/03/13 01:16:15;;;;;;;44.65;10.75;;;;;;;8.72;100.00;101375.50;5073116;28;20028;-74
2024/03/13 01:18:41;;;;;;;61.80;10.07;;;;;;;8.69;100.00;101379.25;5091573;28;20043;-73
2024/03/13 01:21:06;;;;;;;58.80;10.60;;;;;;;8.70;100.00;101377.41;5091673;28;20054;-74
2024/03/13 01:23:32;;;;;;;62.70;11.02;;;;;;;8.70;100.00;101382.72;5091454;28;20376;-73
2024/03/13 01:26:02;;;;;;;56.80;11.77;;;;;;;8.69;100.00;101379.25;5091736;28;20028;-71
2024/03/13 01:28:27;;;;;;;49.25;10.73;;;;;;;8.69;100.00;101375.72;5091232;28;20498;-71
2024/03/13 01:30:53;;;;;;;53.72;10.80;;;;;;;8.68;100.00;101376.69;5093891;28;20032;-72
2024/03/13 01:33:18;;;;;;;56.60;11.45;;;;;;;8.65;100.00;101375.13;5096236;28;20024;-71
2024/03/13 01:35:44;;;;;;;58.55;10.30;;;;;;;8.65;100.00;101378.59;5095559;28;20105;-73
2024/03/13 01:38:09;;;;;;;46.30;10.63;;;;;;;8.67;100.00;101385.59;5095385;28;20109;-73
2024/03/13 01:55:24;;;;;;;60.45;11.52;;;;;;;8.57;100.00;101396.91;5096157;28;20119;-72
2024/03/13 01:58:39;;;;;;;56.33;11.35;;;;;;;8.56;100.00;101391.72;5095200;28;20028;-73
2024/03/13 02:03:46;;;;;;;51.28;10.88;;;;;;;8.61;100.00;101393.06;5013028;28;20053;-73
2024/03/13 02:06:11;;;;;;;62.92;11.18;;;;;;;8.58;100.00;101382.69;5013035;28;20426;-73
2024/03/13 02:08:40;;;;;;;61.33;10.10;;;;;;;8.56;100.00;101389.06;5051218;28;20047;-73
2024/03/13 02:11:05;;;;;;;61.50;10.75;;;;;;;8.52;100.00;101385.75;5094871;28;20101;-72
2024/03/13 02:13:31;;;;;;;47.40;10.10;;;;;;;8.53;100.00;101382.16;5094896;28;20028;-73
2024/03/13 02:15:56;;;;;;;56.13;10.70;;;;;;;8.54;100.00;101386.53;5095043;28;20468;-73
2024/03/13 02:18:29;;;;;;;58.95;12.27;;;;;;;8.51;100.00;101380.56;5076432;28;20043;-73
2024/03/13 02:20:59;;;;;;;60.53;11.45;;;;;;;8.50;100.00;101390.34;5094747;28;20069;-73
2024/03/13 02:23:29;;;;;;;56.10;11.55;;;;;;;8.48;100.00;101381.66;5094640;28;20028;-73
2024/03/13 02:25:55;;;;;;;52.35;11.90;;;;;;;8.46;100.00;101381.78;5095142;28;20024;-72
2024/03/13 02:28:29;;;;;;;60.47;12.95;;;;;;;8.47;100.00;101380.81;5094438;28;20062;-74
2024/03/13 02:30:55;;;;;;;63.08;13.40;;;;;;;8.47;100.00;101394.06;5094518;28;20024;-73
2024/03/13 02:33:20;;;;;;;59.70;12.85;;;;;;;8.45;100.00;101387.19;5094398;28;20085;-74
2024/03/13 02:35:45;;;;;;;63.90;12.68;;;;;;;8.44;100.00;101388.16;5094628;28;20024;-73
2024/03/13 02:38:11;;;;;;;56.10;11.00;;;;;;;8.44;100.00;101386.34;5094884;28;20039;-73
2024/03/13 02:40:36;;;;;;;58.00;11.07;;;;;;;8.46;100.00;101383.56;5094491;28;20024;-73
2024/03/13 02:43:02;;;;;;;45.08;10.57;;;;;;;8.46;100.00;101376.47;5094478;28;20120;-73
2024/03/13 02:45:27;;;;;;;51.80;10.63;;;;;;;8.49;100.00;101378.03;5094524;28;20053;-73
2024/03/13 02:47:53;;;;;;;48.80;10.70;;;;;;;8.52;100.00;101374.31;5076135;28;20032;-73
2024/03/13 02:50:19;;;;;;;40.83;10.07;;;;;;;8.53;100.00;101376.84;5094308;28;20031;-73
2024/03/13 02:52:44;;;;;;;47.25;9.18;;;;;;;8.54;100.00;101377.69;5094289;28;20485;-73
2024/03/13 02:55:13;;;;;;;38.28;8.70;;;;;;;8.56;100.00;101379.28;5094376;28;20069;-73
2024/03/13 02:57:39;;;;;;;38.40;8.50;;;;;;;8.58;100.00;101387.13;5094026;28;20024;-73
2024/03/13 03:00:06;;;;;;;35.10;8.15;;;;;;;8.62;100.00;101380.66;5094161;28;20024;-73
2024/03/13 03:02:32;;;;;;;35.40;7.70;;;;;;;8.62;100.00;101385.94;5094239;28;20032;-73
2024/03/13 03:04:58;;;;;;;34.88;7.35;;;;;;;8.62;100.00;101384.13;5094243;28;20555;-73
2024/03/13 03:07:23;;;;;;;38.63;7.38;;;;;;;8.62;100.00;101384.13;5094086;28;20024;-73
2024/03/13 03:09:50;;;;;;;26.17;6.47;;;;;;;8.64;100.00;101389.31;5093512;28;20036;-72
2024/03/13 03:12:15;;;;;;;44.53;7.00;;;;;;;8.66;100.00;101387.44;5094512;28;20059;-73
2024/03/13 03:14:41;;;;;;;34.08;7.32;;;;;;;8.66;100.00;101382.13;5093700;28;20032;-73
2024/03/13 03:17:06;;;;;;;37.58;6.65;;;;;;;8.68;100.00;101384.66;5093558;28;20388;-72
2024/03/13 03:19:34;;;;;;;32.97;6.22;;;;;;;8.68;100.00;101387.31;5093545;28;20028;-72
2024/03/13 03:22:00;;;;;;;26.92;5.53;;;;;;;8.70;100.00;101393.34;5094218;28;20047;-72
2024/03/13 03:24:29;;;;;;;33.60;6.13;;;;;;;8.72;100.00;101394.06;5093714;28;20024;-72
2024/03/13 03:26:55;;;;;;;23.27;5.38;;;;;;;8.72;100.00;101392.28;5093308;28;20379;-73
2024/03/13 03:29:21;;;;;;;38.45;5.93;;;;;;;8.73;100.00;101388.66;5093365;28;20032;-72
2024/03/13 03:31:46;;;;;;;33.25;5.75;;;;;;;8.74;100.00;101390.34;5093295;28;20098;-72
2024/03/13 03:34:12;;;;;;;29.90;5.22;;;;;;;8.75;100.00;101394.69;5093373;28;20039;-72
2024/03/13 03:36:40;;;;;;;34.63;5.70;;;;;;;8.78;100.00;101390.97;5093228;28;20025;-73
2024/03/13 03:39:10;;;;;;;38.45;5.95;;;;;;;8.78;100.00;101390.97;5093479;28;20028;-72
2024/03/13 03:41:38;;;;;;;33.53;6.07;;;;;;;8.78;100.00;101394.47;5093355;28;20028;-72
2024/03/13 03:44:04;;;;;;;29.63;5.47;;;;;;;8.80;100.00;101397.00;5093032;28;20464;-72
2024/03/13 03:46:29;;;;;;;28.88;5.97;;;;;;;8.79;100.00;101401.47;5092958;28;20032;-74
2024/03/13 03:48:55;;;;;;;29.55;5.00;;;;;;;8.80;100.00;101399.66;5092984;28;20524;-72
2024/03/13 03:51:20;;;;;;;22.73;4.75;;;;;;;8.80;100.00;101403.16;5093136;28;20063;-72
2024/03/13 03:53:45;;;;;;;29.42;5.15;;;;;;;8.81;100.00;101396.06;5092056;28;20081;-72
2024/03/13 03:56:14;;;;;;;21.75;5.10;;;;;;;8.78;100.00;101407.75;5093445;28;20066;-72
2024/03/13 03:58:42;;;;;;;30.10;5.00;;;;;;;8.77;100.00;101408.69;5093354;28;20028;-72
2024/03/13 04:01:08;;;;;;;30.02;5.68;;;;;;;8.80;100.00;101408.47;5093090;28;20119;-72
2024/03/13 04:03:34;;;;;;;29.90;4.80;;;;;;;8.81;100.00;101398.72;5093076;28;20055;-72
2024/03/13 04:06:00;;;;;;;32.78;5.40;;;;;;;8.80;100.00;101405.81;5093003;28;20028;-72
2024/03/13 04:08:25;;;;;;;36.35;5.10;;;;;;;8.81;100.00;101404.03;5092933;28;20032;-71
2024/03/13 04:10:51;;;;;;;27.52;5.07;;;;;;;8.80;100.00;101397.84;5092385;28;20113;-72
2024/03/13 04:13:19;;;;;;;19.52;4.28;;;;;;;8.76;100.00;101401.72;5092541;28;20050;-72
2024/03/13 04:15:46;;;;;;;25.08;4.40;;;;;;;8.77;100.00;101400.72;5092618;28;20424;-72
2024/03/13 04:18:12;;;;;;;32.25;6.15;;;;;;;8.75;100.00;101397.34;5093034;28;20028;-72
2024/03/13 04:20:38;;;;;;;27.58;4.40;;;;;;;8.76;100.00;101400.84;5093005;28;20524;-72
2024/03/13 04:23:05;;;;;;;28.73;5.03;;;;;;;8.78;100.00;101397.13;5092562;28;20038;-72
2024/03/13 04:25:32;;;;;;;31.70;4.80;;;;;;;8.76;100.00;101401.72;5092313;28;20487;-72
2024/03/13 04:27:58;;;;;;;20.45;4.00;;;;;;;8.76;100.00;101404.38;5092201;28;20027;-71
2024/03/13 04:30:23;;;;;;;30.05;4.22;;;;;;;8.78;100.00;101397.13;5092350;28;20026;-72
2024/03/13 04:32:49;;;;;;;37.58;4.88;;;;;;;8.78;100.00;101402.44;5091962;28;20480;-72
2024/03/13 04:35:15;;;;;;;34.35;4.78;;;;;;;8.78;100.00;101399.78;5092497;28;20043;-72
2024/03/13 04:37:40;;;;;;;31.55;4.70;;;;;;;8.77;100.00;101413.16;5092415;28;20077;-71
2024/03/13 04:40:08;;;;;;;29.63;5.68;;;;;;;8.75;100.00;101407.97;5073929;28;20028;-72
2024/03/13 04:42:34;;;;;;;33.90;6.15;;;;;;;8.74;100.00;101413.38;5092236;28;20438;-72
2024/03/13 04:45:00;;;;;;;33.70;5.15;;;;;;;8.72;100.00;101408.19;5091890;28;20055;-72
2024/03/13 04:47:25;;;;;;;29.00;4.60;;;;;;;8.74;100.00;101403.59;5092003;28;20035;-71
2024/03/13 04:49:51;;;;;;;26.40;4.43;;;;;;;8.77;100.00;101410.50;5091718;28;20541;-72
2024/03/13 04:52:16;;;;;;;36.20;5.95;;;;;;;8.75;100.00;101415.94;5091934;28;20032;-72
2024/03/13 04:54:41;;;;;;;35.90;5.20;;;;;;;8.75;100.00;101407.13;5091911;28;20464;-72
2024/03/13 04:57:07;;;;;;;32.53;5.10;;;;;;;8.73;100.00;101412.56;5092127;28;20085;-72
2024/03/13 04:59:35;;;;;;;37.50;5.90;;;;;;;8.71;100.00;101414.44;5091920;28;20495;-72
2024/03/13 05:02:01;;;;;;;29.08;5.50;;;;;;;8.69;100.00;101420.81;5091705;28;20020;-72
2024/03/13 05:04:27;;;;;;;24.63;4.53;;;;;;;8.70;100.00;101412.75;5091715;28;20395;-72
2024/03/13 05:06:56;;;;;;;34.88;5.00;;;;;;;8.71;100.00;101403.00;5091417;28;20020;-72
2024/03/13 05:09:22;;;;;;;33.53;5.15;;;;;;;8.68;100.00;101413.84;5091879;28;20054;-72
2024/03/13 05:11:47;;;;;;;34.80;4.95;;;;;;;8.69;100.00;101415.50;5092127;28;20129;-72
2024/03/13 05:14:13;;;;;;;35.47;5.68;;;;;;;8.70;100.00;101419.88;5091645;28;20464;-72
2024/03/13 05:16:41;;;;;;;38.53;5.22;;;;;;;8.67;100.00;101415.63;5091409;28;20028;-72
2024/03/13 05:19:07;;;;;;;49.78;6.07;;;;;;;8.67;100.00;101418.28;5091406;28;20065;-72
2024/03/13 05:21:33;;;;;;;46.55;5.32;;;;;;;8.63;100.00;101422.97;5091691;28;20032;-72
2024/03/13 05:23:58;;;;;;;36.53;5.50;;;;;;;8.63;100.00;101422.97;5091682;28;20542;-71
2024/03/13 05:26:27;;;;;;;37.75;5.03;;;;;;;8.62;100.00;101423.09;5091543;28;20379;-71
2024/03/13 05:28:54;;;;;;;39.88;5.10;;;;;;;8.61;100.00;101416.09;5091058;28;20028;-72
2024/03/13 05:31:21;;;;;;;37.67;5.28;;;;;;;8.60;100.00;101417.91;5091133;28;20456;-71
2024/03/13 05:33:47;;;;;;;40.70;5.78;;;;;;;8.59;100.00;101418.00;5091101;28;20024;-72
2024/03/13 05:36:12;;;;;;;30.67;4.78;;;;;;;8.59;100.00;101416.19;5091087;28;20067;-71
2024/03/13 05:38:38;;;;;;;27.15;4.88;;;;;;;8.57;100.00;101428.72;5091348;28;20050;-71
2024/03/13 05:41:04;;;;;;;43.22;5.50;;;;;;;8.56;100.00;101429.69;5073401;28;20441;-71
2024/03/13 05:43:29;;;;;;;43.33;6.38;;;;;;;8.55;100.00;101425.31;5091521;28;20024;-72
2024/03/13 05:45:55;;;;;;;34.70;5.38;;;;;;;8.55;100.00;101433.28;5091144;28;20031;-71
2024/03/13 05:48:20;;;;;;;38.42;4.93;;;;;;;8.57;100.00;101430.53;5091161;28;20036;-73
2024/03/13 05:50:46;;;;;;;31.58;5.22;;;;;;;8.57;100.00;101433.16;5091028;28;20383;-72
2024/03/13 05:53:11;;;;;;;33.67;5.72;;;;;;;8.59;100.00;101433.94;5090992;28;20055;-71
2024/03/13 05:55:36;;;;;;;39.15;5.13;;;;;;;8.59;100.00;101436.56;5090827;28;20028;-73
2024/03/13 05:58:02;;;;;;;30.15;5.20;;;;;;;8.60;100.00;101438.28;5091008;28;20469;-71
2024/03/13 06:00:27;;;;;;;31.75;4.85;;;;;;;8.59;100.00;101447.19;5091290;28;20039;-73
2024/03/13 06:02:53;;;;;;;31.40;4.85;;;;;;;8.59;100.00;101448.03;5091101;28;20108;-72
2024/03/13 06:05:18;;;;;;;34.63;5.78;;;;;;;8.59;100.00;101449.84;5072672;28;20481;-71
2024/03/13 06:07:43;;;;;;;35.08;7.10;;;;;;;8.59;100.00;101453.31;5091125;28;20024;-73
2024/03/13 06:10:12;;;;;;;34.55;5.60;;;;;;;8.60;100.00;101454.19;5090964;28;20056;-72
2024/03/13 06:12:37;;;;;;;42.47;7.28;;;;;;;8.61;100.00;101458.53;5090936;28;20024;-71
2024/03/13 06:15:07;;;;;;;35.00;6.25;;;;;;;8.64;100.00;101453.88;5091010;28;20042;-72
2024/03/13 06:17:34;;;;;;;24.17;6.20;;;;;;;8.68;100.00;101461.59;5093951;28;20545;-71
2024/03/13 06:20:00;;;;;;;39.13;6.38;;;;;;;8.68;100.00;101462.44;5076776;28;20028;-72
2024/03/13 06:22:25;;;;;;;40.47;7.95;;;;;;;8.69;100.00;101457.97;5094404;28;20537;-72
2024/03/13 06:24:51;;;;;;;27.13;5.72;;;;;;;8.69;100.00;101452.66;5094508;28;20070;-72
2024/03/13 06:27:27;;;;;;;35.28;6.50;;;;;;;8.69;100.00;101457.97;5094884;28;20036;-71
2024/03/13 06:29:57;;;;;;;34.47;5.93;;;;;;;8.71;100.00;101448.94;5094568;28;20036;-72
2024/03/13 06:32:23;;;;;;;34.42;5.60;;;;;;;8.71;100.00;101446.28;5094988;28;20093;-71
2024/03/13 06:34:48;;;;;;;33.20;7.18;;;;;;;8.75;100.00;101444.28;5075846;28;20110;-71
2024/03/13 06:37:14;;;;;;;34.00;6.07;;;;;;;8.78;100.00;101446.69;5075636;28;20387;-72
2024/03/13 06:39:41;;;;;;;40.92;6.82;;;;;;;8.78;100.00;101444.06;5094879;28;20024;-70
2024/03/13 06:42:06;;;;;;;44.53;6.30;;;;;;;8.78;100.00;101444.88;5094362;28;20024;-70
2024/03/13 06:44:32;;;;;;;25.80;6.13;;;;;;;8.84;100.00;101448.91;5094106;28;20053;-69
2024/03/13 06:46:57;;;;;;;42.55;7.22;;;;;;;8.86;100.00;101449.63;5075963;28;20341;-70
2024/03/13 06:49:22;;;;;;;25.92;7.75;;;;;;;8.89;100.00;101446.75;5094396;28;20035;-69
2024/03/13 06:51:48;;;;;;;29.05;6.13;;;;;;;8.91;100.00;101446.63;5094118;28;20096;-69
2024/03/13 06:54:13;;;;;;;26.70;6.65;;;;;;;8.92;100.00;101451.81;5094196;28;20031;-70
2024/03/13 06:56:39;;;;;;;32.28;6.95;;;;;;;8.94;100.00;101455.22;5075860;28;20364;-71
2024/03/13 06:59:06;;;;;;;36.58;6.95;;;;;;;8.93;100.00;101458.84;5093901;28;20028;-71
2024/03/13 07:01:32;;;;;;;36.33;6.80;;;;;;;8.94;100.00;101454.38;5093958;28;20136;-71
2024/03/13 07:03:57;;;;;;;39.90;7.85;;;;;;;8.93;100.00;101460.66;5093423;28;20499;-72
2024/03/13 07:06:22;;;;;;;32.42;7.30;;;;;;;8.95;100.00;101461.38;5093576;28;20111;-72
2024/03/13 07:08:48;;;;;;;33.97;7.70;;;;;;;8.98;100.00;101461.16;5093561;28;20110;-72
2024/03/13 07:11:13;;;;;;;38.97;7.70;;;;;;;8.99;100.00;101466.34;5093222;28;20072;-72
2024/03/13 07:13:39;;;;;;;35.92;8.40;;;;;;;9.05;100.00;101466.84;5075166;28;20044;-71
2024/03/13 07:16:05;;;;;;;47.10;9.13;;;;;;;9.07;100.00;101467.59;5093156;28;20032;-72
2024/03/13 07:18:31;;;;;;;36.85;8.23;;;;;;;9.09;100.00;101470.97;5093613;28;20471;-71
2024/03/13 07:20:57;;;;;;;38.97;9.45;;;;;;;9.10;100.00;101464.69;5093157;28;20032;-72
2024/03/13 07:23:23;;;;;;;50.65;9.95;;;;;;;9.14;100.00;101467.00;5093676;28;20040;-72
2024/03/13 07:25:55;;;;;;;41.88;9.30;;;;;;;9.25;100.00;101466.19;5093288;28;20092;-71
2024/03/13 07:28:21;;;;;;;45.00;9.65;;;;;;;9.33;100.00;101465.63;5092859;28;20541;-71
2024/03/13 07:30:49;;;;;;;33.03;8.52;;;;;;;9.42;100.00;101466.72;5092954;28;20028;-71
2024/03/13 07:33:15;;;;;;;38.95;8.68;;;;;;;9.51;100.00;101463.41;5092900;28;20032;-71
2024/03/13 07:35:44;;;;;;;55.65;9.95;;;;;;;9.56;100.00;101466.53;5093201;28;20046;-71
2024/03/13 07:38:09;;;;;;;37.72;8.98;;;;;;;9.61;100.00;101476.81;5092697;28;20039;-71
2024/03/13 07:40:39;;;;;;;38.95;8.90;;;;;;;9.60;100.00;101477.78;5092929;28;20028;-71
2024/03/13 07:43:08;;;;;;;40.45;9.02;;;;;;;9.57;100.00;101485.97;5092860;28;20020;-71
2024/03/13 07:45:37;;;;;;;38.35;8.57;;;;;;;9.60;100.00;101481.28;5092592;28;20035;-71
2024/03/13 07:48:07;;;;;;;42.63;8.80;;;;;;;9.69;100.00;101485.06;5092757;28;20035;-72
2024/03/13 07:50:33;;;;;;;27.58;8.05;;;;;;;9.73;100.00;101483.84;5092500;28;20051;-71
2024/03/13 07:52:58;;;;;;;41.38;8.10;;;;;;;9.79;100.00;101480.72;5092520;28;20103;-72
2024/03/13 07:55:23;;;;;;;43.47;8.23;;;;;;;9.93;100.00;101484.09;5092565;28;20135;-72
2024/03/13 07:57:49;;;;;;;36.13;6.63;;;;;;;9.97;100.00;101480.25;5092425;28;20024;-72
2024/03/13 08:00:16;;;;;;;22.58;6.07;;;;;;;10.04;100.00;101486.78;5092667;28;20028;-72
2024/03/13 08:02:43;;;;;;;25.23;6.40;;;;;;;10.05;100.00;101483.19;5093010;28;20042;-72
2024/03/13 08:05:09;;;;;;;24.30;6.45;;;;;;;10.15;100.00;101483.28;5092459;28;20105;-72
2024/03/13 08:07:37;;;;;;;34.78;6.40;;;;;;;10.20;100.00;101481.13;5092350;28;20024;-72
2024/03/13 08:10:02;;;;;;;26.58;5.85;;;;;;;10.26;100.00;101482.47;5092243;28;20031;-74
2024/03/13 08:12:28;;;;;;;26.10;6.15;;;;;;;10.35;100.00;101487.91;5092493;28;20031;-72
2024/03/13 08:14:55;;;;;;;29.63;5.57;;;;;;;10.38;100.00;101482.34;5092409;28;20023;-71
2024/03/13 08:17:20;;;;;;;29.33;5.45;;;;;;;10.43;100.00;101484.63;5092380;28;20035;-72
2024/03/13 08:19:46;;;;;;;27.02;6.13;;;;;;;10.40;100.00;101488.41;5092486;28;20032;-72
2024/03/13 08:22:11;;;;;;;23.25;6.47;;;;;;;10.34;100.00;101488.03;5092299;28;20093;-72
2024/03/13 08:24:37;;;;;;;27.48;5.82;;;;;;;10.27;100.00;101494.78;5092182;28;20068;-71
2024/03/13 08:27:02;;;;;;;23.42;5.70;;;;;;;10.25;100.00;101492.22;5092275;28;20131;-71
2024/03/13 08:29:29;;;;;;;21.65;6.07;;;;;;;10.19;100.00;101495.38;5091980;28;20036;-71
2024/03/13 08:31:55;;;;;;;26.27;6.00;;;;;;;10.14;100.00;101500.22;5092301;28;20032;-71
2024/03/13 08:34:20;;;;;;;30.25;7.30;;;;;;;10.11;100.00;101500.47;5092120;28;20036;-71
2024/03/13 08:36:45;;;;;;;23.58;6.78;;;;;;;10.10;100.00;101504.91;5073660;28;20032;-71
2024/03/13 08:39:12;;;;;;;31.85;7.07;;;;;;;10.11;100.00;101503.97;5073596;28;20028;-72
2024/03/13 08:41:39;;;;;;;30.30;7.00;;;;;;;10.07;100.00;101508.66;5074074;28;20464;-72
2024/03/13 08:44:04;;;;;;;26.90;6.43;;;;;;;10.11;100.00;101511.09;5091996;28;20115;-72
2024/03/13 08:46:29;;;;;;;28.08;6.38;;;;;;;10.15;100.00;101509.88;5092180;28;20107;-72
2024/03/13 08:48:58;;;;;;;16.48;5.82;;;;;;;10.21;100.00;101507.59;5092143;28;20024;-71
2024/03/13 08:51:25;;;;;;;27.08;5.50;;;;;;;10.23;100.00;101503.00;5092052;28;20027;-71
2024/03/13 08:53:51;;;;;;;23.45;6.05;;;;;;;10.29;100.00;101512.31;5091554;28;20043;-71
2024/03/13 08:56:16;;;;;;;21.38;5.60;;;;;;;10.32;100.00;101513.88;5091862;28;20047;-71
2024/03/13 08:58:44;;;;;;;25.70;5.72;;;;;;;10.33;100.00;101512.91;5091540;28;20491;-71
2024/03/13 09:01:10;;;;;;;20.77;5.35;;;;;;;10.35;100.00;101514.50;5091429;28;20024;-72
2024/03/13 09:03:36;;;;;;;22.98;5.53;;;;;;;10.42;100.00;101517.56;5091514;28;20055;-72
2024/03/13 09:06:04;;;;;;;20.30;5.90;;;;;;;10.48;100.00;101527.69;5091405;28;20107;-72
2024/03/13 09:08:29;;;;;;;22.90;6.07;;;;;;;10.51;100.00;101524.78;5091597;28;20024;-71
2024/03/13 09:10:57;;;;;;;19.80;5.40;;;;;;;10.56;100.00;101530.59;5091148;28;20064;-71
2024/03/13 09:13:23;;;;;;;24.40;5.78;;;;;;;10.57;100.00;101534.13;5091227;28;20028;-72
2024/03/13 09:15:49;;;;;;;27.38;5.18;;;;;;;10.64;100.00;101531.78;5091053;28;20039;-72
2024/03/13 09:18:15;;;;;;;21.05;4.80;;;;;;;10.57;100.00;101537.59;5091038;28;20036;-72
2024/03/13 09:20:41;;;;;;;24.85;4.68;;;;;;;10.54;100.00;101532.53;5091361;28;20051;-72
2024/03/13 09:23:09;;;;;;;26.80;5.60;;;;;;;10.46;100.00;101537.59;5091618;28;20089;-72
2024/03/13 09:25:34;;;;;;;17.42;5.18;;;;;;;10.46;100.00;101536.75;5091490;28;20110;-71
2024/03/13 09:28:00;;;;;;;21.25;4.95;;;;;;;10.47;100.00;101533.16;5091384;28;20396;-72
2024/03/13 09:30:25;;;;;;;19.65;4.47;;;;;;;10.39;100.00;101533.75;5091292;28;20527;-72
2024/03/13 09:32:51;;;;;;;15.30;4.20;;;;;;;10.39;100.00;101536.41;5091341;28;20118;-72
2024/03/13 09:35:17;;;;;;;20.05;4.10;;;;;;;10.44;100.00;101534.22;5091136;28;20028;-72
2024/03/13 09:37:43;;;;;;;12.95;3.80;;;;;;;10.55;100.00;101530.72;5091359;28;20095;-71
2024/03/13 09:40:16;;;;;;;18.23;3.70;;;;;;;10.59;100.00;101535.66;5091312;28;20083;-71
2024/03/13 09:42:44;;;;;;;20.70;3.80;;;;;;;10.73;100.00;101533.72;5091337;28;20043;-71
2024/03/13 09:45:16;;;;;;;13.15;3.65;;;;;;;10.80;100.00;101524.28;5091240;28;20028;-72
2024/03/13 09:47:44;;;;;;;16.90;3.78;;;;;;;10.87;100.00;101532.63;5091294;28;20016;-72
2024/03/13 09:50:12;;;;;;;14.90;3.55;;;;;;;10.90;100.00;101530.53;5091221;28;20020;-72
2024/03/13 09:52:39;;;;;;;16.88;3.45;;;;;;;10.91;100.00;101540.22;5094763;28;20024;-72
2024/03/13 09:55:10;;;;;;;20.73;3.65;;;;;;;11.07;100.00;101541.63;5095402;28;20032;-73
2024/03/13 09:57:38;;;;;;;20.95;4.25;;;;;;;11.37;100.00;101542.75;5095309;28;20475;-72
2024/03/13 10:00:10;;;;;;;31.83;6.47;;;;;;;11.51;100.00;101537.13;5095021;28;20016;-72
2024/03/13 10:02:39;;;;;;;25.85;5.53;;;;;;;11.58;100.00;101540.94;5095207;28;20034;-72
2024/03/13 10:05:11;;;;;;;24.90;6.20;;;;;;;11.53;100.00;101547.66;5094975;28;20027;-72
2024/03/13 10:07:37;;;;;;;19.17;5.20;;;;;;;11.32;100.00;101542.31;5095134;28;20035;-72
2024/03/13 10:10:26;;;;;;;25.75;6.00;;;;;;;11.20;100.00;101547.66;5094833;28;20020;-72
2024/03/13 10:12:54;;;;;;;27.92;5.15;;;;;;;11.17;100.00;101539.09;5095149;28;20028;-72
2024/03/13 10:15:21;;;;;;;18.92;4.40;;;;;;;11.13;100.00;101541.13;5095020;28;20036;-73
2024/03/13 10:17:56;;;;;;;21.27;3.90;;;;;;;11.16;100.00;101537.38;5094520;28;20181;-72
2024/03/13 10:20:26;;;;;;;12.77;2.55;;;;;;;11.21;100.00;101545.81;5095281;28;20370;-72
2024/03/13 10:22:53;;;;;;;14.80;2.33;;;;;;;11.20;100.00;101545.00;5094850;28;20023;-72
2024/03/13 10:25:19;;;;;;;10.10;2.10;;;;;;;11.27;100.00;101543.53;5094430;28;20460;-71
2024/03/13 10:27:44;;;;;;;10.25;2.00;;;;;;;11.35;100.00;101547.38;5094329;28;20067;-71
2024/03/13 10:30:12;;;;;;;14.52;2.40;;;;;;;11.50;100.00;101542.59;5094378;28;20133;-72
2024/03/13 10:32:39;;;;;;;16.42;2.42;;;;;;;11.51;100.00;101544.25;5076090;28;20316;-71
2024/03/13 10:35:08;;;;;;;15.43;2.83;;;;;;;11.62;100.00;101537.06;5094281;28;20032;-71
2024/03/13 10:37:35;;;;;;;12.15;1.95;;;;;;;11.75;100.00;101552.03;5094165;28;20030;-72
2024/03/13 10:40:05;;;;;;;13.52;2.33;;;;;;;11.91;100.00;101540.91;5094608;28;20046;-72
2024/03/13 10:42:31;;;;;;;8.52;2.20;;;;;;;11.76;100.00;101546.59;5093898;28;20024;-72
2024/03/13 10:44:58;;;;;;;7.80;1.70;;;;;;;11.78;100.00;101533.97;5094003;28;20076;-72
2024/03/13 10:47:26;;;;;;;8.02;1.75;;;;;;;11.68;100.00;101537.53;5094215;28;20026;-73
2024/03/13 10:49:51;;;;;;;12.40;1.70;;;;;;;11.58;100.00;101535.63;5094274;28;20032;-72
2024/03/13 10:52:19;;;;;;;9.00;1.90;;;;;;;11.50;100.00;101540.75;5093739;28;20525;-72
2024/03/13 10:54:44;;;;;;;13.88;2.63;;;;;;;11.44;100.00;101531.44;5093761;28;20168;-72
2024/03/13 10:57:18;;;;;;;12.60;2.45;;;;;;;11.38;100.00;101545.28;5093784;28;20104;-72
2024/03/13 10:59:48;;;;;;;9.95;1.63;;;;;;;11.35;100.00;101544.72;5093922;28;20031;-72
2024/03/13 11:02:14;;;;;;;14.10;2.17;;;;;;;11.25;100.00;101547.28;5093611;28;20024;-72
2024/03/13 11:04:41;;;;;;;11.90;1.90;;;;;;;11.12;100.00;101547.41;5093861;28;20024;-72
2024/03/13 11:07:18;;;;;;;12.95;2.97;;;;;;;11.01;100.00;101548.31;5093630;28;20487;-72
2024/03/13 11:09:44;;;;;;;10.43;1.80;;;;;;;10.98;100.00;101553.88;5093540;28;20020;-72
2024/03/13 11:12:19;;;;;;;9.80;1.98;;;;;;;10.77;100.00;101543.97;5093650;28;20040;-72
2024/03/13 11:14:52;;;;;;;10.75;2.00;;;;;;;10.66;100.00;101556.47;5093592;28;20124;-73
2024/03/13 11:17:23;;;;;;;18.70;2.40;;;;;;;10.54;100.00;101559.13;5093693;28;20104;-72
2024/03/13 11:20:01;;;;;;;13.57;1.90;;;;;;;10.61;100.00;101551.50;5093298;28;20462;-72
2024/03/13 11:22:31;;;;;;;6.82;2.03;;;;;;;10.76;100.00;101549.44;5093663;28;20019;-72
2024/03/13 11:25:00;;;;;;;9.85;1.80;;;;;;;10.77;100.00;101543.97;5075739;28;20325;-72
2024/03/13 11:27:27;;;;;;;11.98;2.60;;;;;;;10.88;100.00;101548.47;5094072;28;20012;-72
2024/03/13 11:29:54;;;;;;;12.95;2.45;;;;;;;10.86;100.00;101553.06;5093522;28;20016;-72